メインページ
METAR-TAF:

METAR-TAF

空港 :

リマ, ペルー

ホルヘ・チャベス国際空港

緯度: 12-00S, 経度: 077-07W, 海抜: 12m

現時点の気象観測

当レポートは26分前の17:00(UTC)に作成
の風 8kt
気温 16°C
湿度 88%
気圧 1015 hPa
視程10km以上
高度900ftの曇り

METAR: SPJC 231700Z 19008KT 9999 OVC009 16/14 Q1015 NOSIG RMK PP000

時間: 12:26 (17:26 UTC)

予報

当レポートは6時間26分前の11:00(UTC)に作成
予報は23日の 12時(UTC)から 24日の 12時(UTC)まで有効
の風 8kt
視程10km以上
高度800ftの曇り
23日の 12時(UTC)から 23日の 13時(UTC)まで一時的に
視程: 7000m
23日の 15時(UTC)から 23日の 16時(UTC)まで徐々に
高度1300ftの曇り
23日の 18時(UTC)から 23日の 20時(UTC)まで徐々に
の風 13kt
高度1700ftの千切れ雲あり

TAF: SPJC 231100Z 2312/2412 18008KT 9999 OVC008 TX19/2319Z TN15/2411Z TEMPO 2312/2313 7000 BECMG 2315/2316 OVC013 BECMG 2318/2320 18013KT BKN017

4,000以上の空港の気象観測と天気予報(METAR報とTAF報)

利用可能な観測所は地図上に黄色い丸と赤い丸で示す。

丸の上にカーソルを重ねると観測所名を参照できる。

次にクリックすると気象観測と天気予報を参照できる。

マップの切り替え:黒色「×」印の緑ボタンをクリックして拡大、「-」印の緑ボタンをクリックして縮小、緑色の三角印をクリックして隣りの地図に切り替え


METAR-TAF: